sensor_id;sensor_type;location;lat;lon;timestamp;temperature;humidity
26051;DHT22;13825;53.496;10.020;2023-02-22T00:06:14;7.50;99.90
26051;DHT22;13825;53.496;10.020;2023-02-22T00:09:05;7.50;99.90
26051;DHT22;13825;53.496;10.020;2023-02-22T00:12:15;7.50;99.90
26051;DHT22;13825;53.496;10.020;2023-02-22T00:14:53;7.50;99.90
26051;DHT22;13825;53.496;10.020;2023-02-22T00:24:40;7.40;99.90
26051;DHT22;13825;53.496;10.020;2023-02-22T00:27:44;7.50;99.90
26051;DHT22;13825;53.496;10.020;2023-02-22T00:30:41;7.50;99.90
26051;DHT22;13825;53.496;10.020;2023-02-22T00:37:08;7.50;99.90
26051;DHT22;13825;53.496;10.020;2023-02-22T00:40:15;7.50;99.90
26051;DHT22;13825;53.496;10.020;2023-02-22T00:52:53;7.50;99.90
26051;DHT22;13825;53.496;10.020;2023-02-22T00:56:16;7.50;99.90
26051;DHT22;13825;53.496;10.020;2023-02-22T01:28:19;7.50;99.90
26051;DHT22;13825;53.496;10.020;2023-02-22T01:31:38;7.50;99.90
26051;DHT22;13825;53.496;10.020;2023-02-22T01:41:26;7.50;99.90
26051;DHT22;13825;53.496;10.020;2023-02-22T01:44:37;7.50;99.90
26051;DHT22;13825;53.496;10.020;2023-02-22T01:47:24;7.50;99.90
26051;DHT22;13825;53.496;10.020;2023-02-22T01:50:07;7.50;99.90
26051;DHT22;13825;53.496;10.020;2023-02-22T01:53:12;7.50;99.90
26051;DHT22;13825;53.496;10.020;2023-02-22T01:59:33;7.40;99.90
26051;DHT22;13825;53.496;10.020;2023-02-22T02:02:09;7.40;99.90
26051;DHT22;13825;53.496;10.020;2023-02-22T02:07:29;7.40;99.90
26051;DHT22;13825;53.496;10.020;2023-02-22T02:10:15;7.50;99.90
26051;DHT22;13825;53.496;10.020;2023-02-22T02:12:58;7.40;99.90
26051;DHT22;13825;53.496;10.020;2023-02-22T02:15:54;7.40;99.90
26051;DHT22;13825;53.496;10.020;2023-02-22T02:18:29;7.50;99.90
26051;DHT22;13825;53.496;10.020;2023-02-22T02:41:24;7.40;99.90
26051;DHT22;13825;53.496;10.020;2023-02-22T02:44:26;7.40;99.90
26051;DHT22;13825;53.496;10.020;2023-02-22T02:49:15;7.40;99.90
26051;DHT22;13825;53.496;10.020;2023-02-22T03:00:52;7.20;99.90
26051;DHT22;13825;53.496;10.020;2023-02-22T03:16:16;7.30;99.90
26051;DHT22;13825;53.496;10.020;2023-02-22T03:19:03;7.40;99.90
26051;DHT22;13825;53.496;10.020;2023-02-22T03:25:16;7.30;99.90
26051;DHT22;13825;53.496;10.020;2023-02-22T03:28:23;7.30;99.90
26051;DHT22;13825;53.496;10.020;2023-02-22T03:37:54;7.30;99.90
26051;DHT22;13825;53.496;10.020;2023-02-22T03:40:40;7.30;99.90
26051;DHT22;13825;53.496;10.020;2023-02-22T03:57:13;7.20;99.90
26051;DHT22;13825;53.496;10.020;2023-02-22T04:03:03;7.30;99.90
26051;DHT22;13825;53.496;10.020;2023-02-22T04:05:51;7.30;99.90
26051;DHT22;13825;53.496;10.020;2023-02-22T04:08:33;7.20;99.90
26051;DHT22;13825;53.496;10.020;2023-02-22T04:11:28;7.20;99.90
26051;DHT22;13825;53.496;10.020;2023-02-22T04:20:58;7.20;99.90
26051;DHT22;13825;53.496;10.020;2023-02-22T04:23:49;7.20;99.90
26051;DHT22;13825;53.496;10.020;2023-02-22T04:29:55;7.30;99.90
26051;DHT22;13825;53.496;10.020;2023-02-22T04:38:55;7.30;99.90
26051;DHT22;13825;53.496;10.020;2023-02-22T04:41:47;7.20;99.90
26051;DHT22;13825;53.496;10.020;2023-02-22T04:47:55;7.30;99.90
26051;DHT22;13825;53.496;10.020;2023-02-22T04:51:08;7.30;99.90
26051;DHT22;13825;53.496;10.020;2023-02-22T05:29:13;7.40;99.90
26051;DHT22;13825;53.496;10.020;2023-02-22T05:32:23;7.40;99.90
26051;DHT22;13825;53.496;10.020;2023-02-22T05:38:50;7.30;99.90
26051;DHT22;13825;53.496;10.020;2023-02-22T06:18:34;7.50;99.90
26051;DHT22;13825;53.496;10.020;2023-02-22T06:21:15;7.40;99.90
26051;DHT22;13825;53.496;10.020;2023-02-22T06:24:02;7.40;99.90
26051;DHT22;13825;53.496;10.020;2023-02-22T06:27:00;7.40;99.90
26051;DHT22;13825;53.496;10.020;2023-02-22T06:39:52;7.40;99.90
26051;DHT22;13825;53.496;10.020;2023-02-22T06:42:41;7.40;99.90
26051;DHT22;13825;53.496;10.020;2023-02-22T06:45:49;7.30;99.90
26051;DHT22;13825;53.496;10.020;2023-02-22T06:49:07;7.30;99.90
26051;DHT22;13825;53.496;10.020;2023-02-22T06:52:23;7.40;99.90
26051;DHT22;13825;53.496;10.020;2023-02-22T07:02:09;7.30;99.90
26051;DHT22;13825;53.496;10.020;2023-02-22T07:06:27;7.40;99.90
26051;DHT22;13825;53.496;10.020;2023-02-22T07:12:00;7.40;99.90
26051;DHT22;13825;53.496;10.020;2023-02-22T07:25:24;7.40;99.90
26051;DHT22;13825;53.496;10.020;2023-02-22T07:28:16;7.40;99.90
26051;DHT22;13825;53.496;10.020;2023-02-22T08:06:32;7.70;99.90
26051;DHT22;13825;53.496;10.020;2023-02-22T08:13:25;7.80;99.90
26051;DHT22;13825;53.496;10.020;2023-02-22T08:21:56;8.10;99.90
26051;DHT22;13825;53.496;10.020;2023-02-22T09:56:00;8.90;99.90
26051;DHT22;13825;53.496;10.020;2023-02-22T09:58:48;8.90;99.90
26051;DHT22;13825;53.496;10.020;2023-02-22T10:01:46;8.80;99.90
26051;DHT22;13825;53.496;10.020;2023-02-22T10:04:25;9.00;99.90
26051;DHT22;13825;53.496;10.020;2023-02-22T10:07:19;9.10;99.90
26051;DHT22;13825;53.496;10.020;2023-02-22T10:10:23;9.10;99.90
26051;DHT22;13825;53.496;10.020;2023-02-22T10:13:24;9.10;99.90
26051;DHT22;13825;53.496;10.020;2023-02-22T10:16:47;9.10;99.90
26051;DHT22;13825;53.496;10.020;2023-02-22T10:20:05;9.20;99.90
26051;DHT22;13825;53.496;10.020;2023-02-22T10:23:27;9.20;99.90
26051;DHT22;13825;53.496;10.020;2023-02-22T10:26:22;9.50;99.90
26051;DHT22;13825;53.496;10.020;2023-02-22T10:29:21;9.70;99.90
26051;DHT22;13825;53.496;10.020;2023-02-22T10:31:56;9.90;99.90
26051;DHT22;13825;53.496;10.020;2023-02-22T10:34:40;10.00;99.90
26051;DHT22;13825;53.496;10.020;2023-02-22T10:37:30;10.10;99.90
26051;DHT22;13825;53.496;10.020;2023-02-22T10:40:19;10.40;99.90
26051;DHT22;13825;53.496;10.020;2023-02-22T10:43:09;10.50;99.90
26051;DHT22;13825;53.496;10.020;2023-02-22T10:45:52;10.60;99.90
26051;DHT22;13825;53.496;10.020;2023-02-22T10:48:45;10.70;99.90
26051;DHT22;13825;53.496;10.020;2023-02-22T10:51:22;10.90;99.90
26051;DHT22;13825;53.496;10.020;2023-02-22T10:53:58;11.20;99.90
26051;DHT22;13825;53.496;10.020;2023-02-22T10:56:46;11.10;99.90
26051;DHT22;13825;53.496;10.020;2023-02-22T10:59:37;11.40;99.90
26051;DHT22;13825;53.496;10.020;2023-02-22T11:02:38;11.50;99.90
26051;DHT22;13825;53.496;10.020;2023-02-22T11:05:29;11.60;99.90
26051;DHT22;13825;53.496;10.020;2023-02-22T11:08:15;11.70;99.90
26051;DHT22;13825;53.496;10.020;2023-02-22T11:10:44;11.80;99.90
26051;DHT22;13825;53.496;10.020;2023-02-22T11:13:32;11.80;99.90
26051;DHT22;13825;53.496;10.020;2023-02-22T11:16:32;11.80;99.90
26051;DHT22;13825;53.496;10.020;2023-02-22T11:19:44;11.80;99.90
26051;DHT22;13825;53.496;10.020;2023-02-22T11:22:44;12.10;99.90
26051;DHT22;13825;53.496;10.020;2023-02-22T11:25:30;12.20;99.90
26051;DHT22;13825;53.496;10.020;2023-02-22T12:11:49;11.90;1.00
26051;DHT22;13825;53.496;10.020;2023-02-22T12:31:29;12.20;1.00
26051;DHT22;13825;53.496;10.020;2023-02-22T12:42:55;12.30;1.00
26051;DHT22;13825;53.496;10.020;2023-02-22T12:58:43;12.20;1.00
26051;DHT22;13825;53.496;10.020;2023-02-22T13:09:07;12.30;1.00
26051;DHT22;13825;53.496;10.020;2023-02-22T13:12:01;12.40;99.90
26051;DHT22;13825;53.496;10.020;2023-02-22T13:25:22;12.10;1.00
26051;DHT22;13825;53.496;10.020;2023-02-22T13:27:56;12.00;1.00
26051;DHT22;13825;53.496;10.020;2023-02-22T13:30:39;12.10;1.00
26051;DHT22;13825;53.496;10.020;2023-02-22T13:36:35;12.20;1.00
26051;DHT22;13825;53.496;10.020;2023-02-22T13:39:46;12.20;1.00
26051;DHT22;13825;53.496;10.020;2023-02-22T13:42:46;12.20;1.00
26051;DHT22;13825;53.496;10.020;2023-02-22T13:49:16;12.20;1.00
26051;DHT22;13825;53.496;10.020;2023-02-22T13:52:00;12.20;1.00
26051;DHT22;13825;53.496;10.020;2023-02-22T13:54:53;12.30;1.00
26051;DHT22;13825;53.496;10.020;2023-02-22T13:57:38;12.30;1.00
26051;DHT22;13825;53.496;10.020;2023-02-22T14:03:47;12.10;1.00
26051;DHT22;13825;53.496;10.020;2023-02-22T14:06:44;12.20;1.00
26051;DHT22;13825;53.496;10.020;2023-02-22T14:09:50;12.00;1.00
26051;DHT22;13825;53.496;10.020;2023-02-22T14:12:48;12.00;1.00
26051;DHT22;13825;53.496;10.020;2023-02-22T14:15:20;11.90;1.00
26051;DHT22;13825;53.496;10.020;2023-02-22T14:18:18;11.90;1.00
26051;DHT22;13825;53.496;10.020;2023-02-22T14:21:06;11.80;1.00
26051;DHT22;13825;53.496;10.020;2023-02-22T14:23:46;11.80;1.00
26051;DHT22;13825;53.496;10.020;2023-02-22T14:26:25;11.70;1.00
26051;DHT22;13825;53.496;10.020;2023-02-22T14:29:14;11.70;99.90
26051;DHT22;13825;53.496;10.020;2023-02-22T14:32:00;11.70;1.00
26051;DHT22;13825;53.496;10.020;2023-02-22T14:37:30;11.70;1.00
26051;DHT22;13825;53.496;10.020;2023-02-22T14:40:25;11.80;1.00
26051;DHT22;13825;53.496;10.020;2023-02-22T14:43:03;11.70;1.00
26051;DHT22;13825;53.496;10.020;2023-02-22T14:45:47;11.80;1.00
26051;DHT22;13825;53.496;10.020;2023-02-22T14:48:23;11.70;1.00
26051;DHT22;13825;53.496;10.020;2023-02-22T14:51:16;11.70;75.30
26051;DHT22;13825;53.496;10.020;2023-02-22T14:54:00;11.60;99.80
26051;DHT22;13825;53.496;10.020;2023-02-22T14:56:35;11.50;99.90
26051;DHT22;13825;53.496;10.020;2023-02-22T14:59:25;11.40;99.90
26051;DHT22;13825;53.496;10.020;2023-02-22T15:02:13;11.50;99.90
26051;DHT22;13825;53.496;10.020;2023-02-22T15:05:02;11.40;99.90
26051;DHT22;13825;53.496;10.020;2023-02-22T15:07:48;11.30;99.90
26051;DHT22;13825;53.496;10.020;2023-02-22T15:27:32;11.00;99.90
26051;DHT22;13825;53.496;10.020;2023-02-22T15:30:32;10.90;99.90
26051;DHT22;13825;53.496;10.020;2023-02-22T15:52:08;10.60;99.90
26051;DHT22;13825;53.496;10.020;2023-02-22T15:54:50;10.70;99.90
26051;DHT22;13825;53.496;10.020;2023-02-22T15:57:30;10.60;99.90
26051;DHT22;13825;53.496;10.020;2023-02-22T16:00:01;10.60;99.90
26051;DHT22;13825;53.496;10.020;2023-02-22T16:02:34;10.40;99.90
26051;DHT22;13825;53.496;10.020;2023-02-22T16:11:22;10.30;99.90
26051;DHT22;13825;53.496;10.020;2023-02-22T16:13:56;10.30;99.90
26051;DHT22;13825;53.496;10.020;2023-02-22T16:16:30;10.20;99.90
26051;DHT22;13825;53.496;10.020;2023-02-22T16:22:02;10.20;99.90
26051;DHT22;13825;53.496;10.020;2023-02-22T16:24:45;10.10;99.90
26051;DHT22;13825;53.496;10.020;2023-02-22T16:27:23;10.00;99.90
26051;DHT22;13825;53.496;10.020;2023-02-22T16:30:01;10.00;99.90
26051;DHT22;13825;53.496;10.020;2023-02-22T16:32:28;10.00;99.90
26051;DHT22;13825;53.496;10.020;2023-02-22T16:35:01;10.00;99.90
26051;DHT22;13825;53.496;10.020;2023-02-22T16:37:29;9.90;99.90
26051;DHT22;13825;53.496;10.020;2023-02-22T16:39:56;9.80;99.90
26051;DHT22;13825;53.496;10.020;2023-02-22T16:42:32;9.90;99.90
26051;DHT22;13825;53.496;10.020;2023-02-22T16:45:02;9.90;99.90
26051;DHT22;13825;53.496;10.020;2023-02-22T16:47:44;9.80;99.90
26051;DHT22;13825;53.496;10.020;2023-02-22T16:50:20;9.70;99.90
26051;DHT22;13825;53.496;10.020;2023-02-22T16:52:52;9.70;99.90
26051;DHT22;13825;53.496;10.020;2023-02-22T16:58:33;9.50;99.90
26051;DHT22;13825;53.496;10.020;2023-02-22T17:01:08;9.50;99.90
26051;DHT22;13825;53.496;10.020;2023-02-22T17:03:49;9.50;99.90
26051;DHT22;13825;53.496;10.020;2023-02-22T17:06:19;9.50;99.90
26051;DHT22;13825;53.496;10.020;2023-02-22T17:08:46;9.50;99.90
26051;DHT22;13825;53.496;10.020;2023-02-22T17:11:16;9.50;99.90
26051;DHT22;13825;53.496;10.020;2023-02-22T17:13:48;9.40;99.90
26051;DHT22;13825;53.496;10.020;2023-02-22T17:16:16;9.30;99.90
26051;DHT22;13825;53.496;10.020;2023-02-22T17:18:44;9.30;99.90
26051;DHT22;13825;53.496;10.020;2023-02-22T17:21:11;9.30;99.90
26051;DHT22;13825;53.496;10.020;2023-02-22T17:23:38;9.30;99.90
26051;DHT22;13825;53.496;10.020;2023-02-22T17:26:05;9.20;99.90
26051;DHT22;13825;53.496;10.020;2023-02-22T17:28:32;9.20;99.90
26051;DHT22;13825;53.496;10.020;2023-02-22T17:31:00;9.10;99.90
26051;DHT22;13825;53.496;10.020;2023-02-22T17:34:41;9.10;99.90
26051;DHT22;13825;53.496;10.020;2023-02-22T17:37:15;9.20;99.90
26051;DHT22;13825;53.496;10.020;2023-02-22T17:39:42;9.10;99.90
26051;DHT22;13825;53.496;10.020;2023-02-22T17:42:15;9.10;99.90
26051;DHT22;13825;53.496;10.020;2023-02-22T17:44:42;9.10;99.90
26051;DHT22;13825;53.496;10.020;2023-02-22T17:47:09;9.10;99.90
26051;DHT22;13825;53.496;10.020;2023-02-22T17:49:36;9.10;99.90
26051;DHT22;13825;53.496;10.020;2023-02-22T17:52:05;9.00;99.90
26051;DHT22;13825;53.496;10.020;2023-02-22T17:54:32;8.90;99.90
26051;DHT22;13825;53.496;10.020;2023-02-22T17:56:59;8.90;99.90
26051;DHT22;13825;53.496;10.020;2023-02-22T17:59:29;8.80;99.90
26051;DHT22;13825;53.496;10.020;2023-02-22T18:02:00;8.80;99.90
26051;DHT22;13825;53.496;10.020;2023-02-22T18:04:34;8.80;99.90
26051;DHT22;13825;53.496;10.020;2023-02-22T18:07:17;8.70;99.90
26051;DHT22;13825;53.496;10.020;2023-02-22T18:09:44;8.70;99.90
26051;DHT22;13825;53.496;10.020;2023-02-22T18:12:11;8.60;99.90
26051;DHT22;13825;53.496;10.020;2023-02-22T18:14:39;8.50;99.90
26051;DHT22;13825;53.496;10.020;2023-02-22T18:17:09;8.50;99.90
26051;DHT22;13825;53.496;10.020;2023-02-22T18:19:40;8.70;99.90
26051;DHT22;13825;53.496;10.020;2023-02-22T18:22:13;8.60;99.90
26051;DHT22;13825;53.496;10.020;2023-02-22T18:24:42;8.50;99.90
26051;DHT22;13825;53.496;10.020;2023-02-22T18:27:09;8.50;99.90
26051;DHT22;13825;53.496;10.020;2023-02-22T18:29:40;8.50;99.90
26051;DHT22;13825;53.496;10.020;2023-02-22T18:32:19;8.40;99.90
26051;DHT22;13825;53.496;10.020;2023-02-22T18:34:55;8.40;99.90
26051;DHT22;13825;53.496;10.020;2023-02-22T18:37:26;8.40;99.90
26051;DHT22;13825;53.496;10.020;2023-02-22T18:39:54;8.40;99.90
26051;DHT22;13825;53.496;10.020;2023-02-22T18:42:21;8.40;99.90
26051;DHT22;13825;53.496;10.020;2023-02-22T18:44:50;8.40;99.90
26051;DHT22;13825;53.496;10.020;2023-02-22T18:47:17;8.30;99.90
26051;DHT22;13825;53.496;10.020;2023-02-22T18:49:45;8.30;99.90
26051;DHT22;13825;53.496;10.020;2023-02-22T18:52:15;8.30;99.90
26051;DHT22;13825;53.496;10.020;2023-02-22T18:54:44;8.30;99.90
26051;DHT22;13825;53.496;10.020;2023-02-22T18:57:12;8.20;99.90
26051;DHT22;13825;53.496;10.020;2023-02-22T18:59:39;8.10;99.90
26051;DHT22;13825;53.496;10.020;2023-02-22T19:02:08;8.20;99.90
26051;DHT22;13825;53.496;10.020;2023-02-22T19:04:37;8.20;99.90
26051;DHT22;13825;53.496;10.020;2023-02-22T19:07:04;8.10;99.90
26051;DHT22;13825;53.496;10.020;2023-02-22T19:09:31;8.10;99.90
26051;DHT22;13825;53.496;10.020;2023-02-22T19:12:00;8.20;99.90
26051;DHT22;13825;53.496;10.020;2023-02-22T19:14:27;8.10;99.90
26051;DHT22;13825;53.496;10.020;2023-02-22T19:16:54;8.10;99.90
26051;DHT22;13825;53.496;10.020;2023-02-22T19:19:26;8.10;99.90
26051;DHT22;13825;53.496;10.020;2023-02-22T19:21:53;8.00;99.90
26051;DHT22;13825;53.496;10.020;2023-02-22T19:24:21;8.10;99.90
26051;DHT22;13825;53.496;10.020;2023-02-22T19:26:48;8.10;99.90
26051;DHT22;13825;53.496;10.020;2023-02-22T19:29:32;8.00;99.90
26051;DHT22;13825;53.496;10.020;2023-02-22T19:32:02;8.00;99.90
26051;DHT22;13825;53.496;10.020;2023-02-22T19:34:30;8.00;99.90
26051;DHT22;13825;53.496;10.020;2023-02-22T19:37:11;8.00;99.90
26051;DHT22;13825;53.496;10.020;2023-02-22T19:43:09;8.00;99.90
26051;DHT22;13825;53.496;10.020;2023-02-22T19:45:40;7.90;99.90
26051;DHT22;13825;53.496;10.020;2023-02-22T19:48:09;7.90;99.90
26051;DHT22;13825;53.496;10.020;2023-02-22T19:50:36;8.00;99.90
26051;DHT22;13825;53.496;10.020;2023-02-22T19:53:13;7.90;99.90
26051;DHT22;13825;53.496;10.020;2023-02-22T19:55:43;7.80;99.90
26051;DHT22;13825;53.496;10.020;2023-02-22T19:58:29;7.90;99.90
26051;DHT22;13825;53.496;10.020;2023-02-22T20:04:18;7.70;99.90
26051;DHT22;13825;53.496;10.020;2023-02-22T20:07:06;7.70;99.90
26051;DHT22;13825;53.496;10.020;2023-02-22T20:10:00;7.70;99.90
26051;DHT22;13825;53.496;10.020;2023-02-22T20:12:49;7.60;99.90
26051;DHT22;13825;53.496;10.020;2023-02-22T20:15:26;7.60;99.90
26051;DHT22;13825;53.496;10.020;2023-02-22T20:18:17;7.60;99.90
26051;DHT22;13825;53.496;10.020;2023-02-22T20:20:52;7.50;99.90
26051;DHT22;13825;53.496;10.020;2023-02-22T20:27:17;7.50;99.90
26051;DHT22;13825;53.496;10.020;2023-02-22T20:29:50;7.50;99.90
26051;DHT22;13825;53.496;10.020;2023-02-22T20:32:55;7.50;99.90
26051;DHT22;13825;53.496;10.020;2023-02-22T20:35:46;7.40;99.90
26051;DHT22;13825;53.496;10.020;2023-02-22T20:45:12;7.40;99.90
26051;DHT22;13825;53.496;10.020;2023-02-22T20:47:55;7.30;99.90
26051;DHT22;13825;53.496;10.020;2023-02-22T20:51:06;7.20;99.90
26051;DHT22;13825;53.496;10.020;2023-02-22T20:54:11;7.30;99.90
26051;DHT22;13825;53.496;10.020;2023-02-22T20:56:45;7.30;99.90
26051;DHT22;13825;53.496;10.020;2023-02-22T20:59:18;7.30;99.90
26051;DHT22;13825;53.496;10.020;2023-02-22T21:02:01;7.20;99.90
26051;DHT22;13825;53.496;10.020;2023-02-22T21:04:47;7.20;99.90
26051;DHT22;13825;53.496;10.020;2023-02-22T21:07:24;7.30;99.90
26051;DHT22;13825;53.496;10.020;2023-02-22T21:10:07;7.20;99.90
26051;DHT22;13825;53.496;10.020;2023-02-22T21:12:42;7.20;99.90
26051;DHT22;13825;53.496;10.020;2023-02-22T21:15:27;7.20;99.90
26051;DHT22;13825;53.496;10.020;2023-02-22T21:18:30;7.20;99.90
26051;DHT22;13825;53.496;10.020;2023-02-22T21:21:22;7.20;99.90
26051;DHT22;13825;53.496;10.020;2023-02-22T21:24:08;7.20;99.90
26051;DHT22;13825;53.496;10.020;2023-02-22T21:26:55;7.20;99.90
26051;DHT22;13825;53.496;10.020;2023-02-22T21:29:42;7.10;99.90
26051;DHT22;13825;53.496;10.020;2023-02-22T21:32:28;7.10;99.90
26051;DHT22;13825;53.496;10.020;2023-02-22T21:39:01;7.20;99.90
26051;DHT22;13825;53.496;10.020;2023-02-22T21:42:03;7.10;99.90
26051;DHT22;13825;53.496;10.020;2023-02-22T21:44:36;7.10;99.90
26051;DHT22;13825;53.496;10.020;2023-02-22T21:47:33;7.10;99.90
26051;DHT22;13825;53.496;10.020;2023-02-22T21:50:17;7.20;99.90
26051;DHT22;13825;53.496;10.020;2023-02-22T21:53:05;7.10;99.90
26051;DHT22;13825;53.496;10.020;2023-02-22T21:55:39;7.00;99.90
26051;DHT22;13825;53.496;10.020;2023-02-22T21:58:15;7.00;99.90
26051;DHT22;13825;53.496;10.020;2023-02-22T22:01:02;7.00;99.90
26051;DHT22;13825;53.496;10.020;2023-02-22T22:03:50;7.00;99.90
26051;DHT22;13825;53.496;10.020;2023-02-22T22:06:55;7.00;99.90
26051;DHT22;13825;53.496;10.020;2023-02-22T22:09:41;7.00;99.90
26051;DHT22;13825;53.496;10.020;2023-02-22T22:12:50;6.80;99.90
26051;DHT22;13825;53.496;10.020;2023-02-22T22:15:40;6.90;99.90
26051;DHT22;13825;53.496;10.020;2023-02-22T22:18:17;6.90;99.90
26051;DHT22;13825;53.496;10.020;2023-02-22T22:21:11;6.90;99.90
26051;DHT22;13825;53.496;10.020;2023-02-22T22:29:46;6.70;99.90
26051;DHT22;13825;53.496;10.020;2023-02-22T22:32:42;6.80;99.90
26051;DHT22;13825;53.496;10.020;2023-02-22T22:35:31;6.70;99.90
26051;DHT22;13825;53.496;10.020;2023-02-22T22:38:12;6.70;99.90
26051;DHT22;13825;53.496;10.020;2023-02-22T22:40:58;6.70;99.90
26051;DHT22;13825;53.496;10.020;2023-02-22T22:50:27;6.50;99.90
26051;DHT22;13825;53.496;10.020;2023-02-22T22:53:04;6.50;99.90
26051;DHT22;13825;53.496;10.020;2023-02-22T22:55:49;6.40;99.90
26051;DHT22;13825;53.496;10.020;2023-02-22T22:58:19;6.50;99.90
26051;DHT22;13825;53.496;10.020;2023-02-22T23:01:01;6.30;99.90
26051;DHT22;13825;53.496;10.020;2023-02-22T23:06:54;6.30;99.90
26051;DHT22;13825;53.496;10.020;2023-02-22T23:09:29;6.10;99.90
26051;DHT22;13825;53.496;10.020;2023-02-22T23:12:09;6.20;99.90
26051;DHT22;13825;53.496;10.020;2023-02-22T23:15:12;6.10;99.90
26051;DHT22;13825;53.496;10.020;2023-02-22T23:17:40;6.00;99.90
26051;DHT22;13825;53.496;10.020;2023-02-22T23:20:13;6.10;99.90
26051;DHT22;13825;53.496;10.020;2023-02-22T23:23:19;6.00;99.90
26051;DHT22;13825;53.496;10.020;2023-02-22T23:26:01;6.00;99.90
26051;DHT22;13825;53.496;10.020;2023-02-22T23:28:39;5.90;99.90
26051;DHT22;13825;53.496;10.020;2023-02-22T23:31:39;5.90;99.90
26051;DHT22;13825;53.496;10.020;2023-02-22T23:34:14;5.80;99.90
26051;DHT22;13825;53.496;10.020;2023-02-22T23:36:59;5.80;99.90
26051;DHT22;13825;53.496;10.020;2023-02-22T23:39:41;5.70;99.90
26051;DHT22;13825;53.496;10.020;2023-02-22T23:42:17;5.80;99.90
26051;DHT22;13825;53.496;10.020;2023-02-22T23:45:07;5.70;99.90
26051;DHT22;13825;53.496;10.020;2023-02-22T23:47:54;5.70;99.90
